sensor_id;sensor_type;location;lat;lon;timestamp;pressure;altitude;pressure_sealevel;temperature;humidity
46946;BME280;32679;40.810;14.498;2023-02-28T00:00:24;100031.38;;;7.72;100.00
46946;BME280;32679;40.810;14.498;2023-02-28T00:02:50;100031.97;;;7.77;100.00
46946;BME280;32679;40.810;14.498;2023-02-28T00:05:19;100035.88;;;7.76;100.00
46946;BME280;32679;40.810;14.498;2023-02-28T00:07:46;100032.31;;;7.76;100.00
46946;BME280;32679;40.810;14.498;2023-02-28T00:10:14;100032.44;;;7.79;100.00
46946;BME280;32679;40.810;14.498;2023-02-28T00:12:40;100036.94;;;7.84;100.00
46946;BME280;32679;40.810;14.498;2023-02-28T00:15:09;100034.72;;;7.77;100.00
46946;BME280;32679;40.810;14.498;2023-02-28T00:17:35;100030.59;;;7.71;100.00
46946;BME280;32679;40.810;14.498;2023-02-28T00:20:03;100036.59;;;7.73;100.00
46946;BME280;32679;40.810;14.498;2023-02-28T00:22:30;100042.13;;;7.73;100.00
46946;BME280;32679;40.810;14.498;2023-02-28T00:24:56;100037.72;;;7.72;100.00
46946;BME280;32679;40.810;14.498;2023-02-28T00:27:21;100054.13;;;7.77;100.00
46946;BME280;32679;40.810;14.498;2023-02-28T00:29:47;100047.22;;;7.83;100.00
46946;BME280;32679;40.810;14.498;2023-02-28T00:32:13;100046.50;;;7.86;100.00
46946;BME280;32679;40.810;14.498;2023-02-28T00:34:39;100018.94;;;7.66;100.00
46946;BME280;32679;40.810;14.498;2023-02-28T00:37:05;100050.44;;;7.85;100.00
46946;BME280;32679;40.810;14.498;2023-02-28T00:39:33;100055.16;;;7.85;100.00
46946;BME280;32679;40.810;14.498;2023-02-28T00:41:59;100057.00;;;7.93;100.00
46946;BME280;32679;40.810;14.498;2023-02-28T00:44:25;100060.81;;;7.88;100.00
46946;BME280;32679;40.810;14.498;2023-02-28T00:46:50;100054.44;;;7.88;100.00
46946;BME280;32679;40.810;14.498;2023-02-28T00:49:17;100060.00;;;7.88;100.00
46946;BME280;32679;40.810;14.498;2023-02-28T00:51:44;100024.00;;;7.76;100.00
46946;BME280;32679;40.810;14.498;2023-02-28T00:54:10;100053.09;;;7.94;100.00
46946;BME280;32679;40.810;14.498;2023-02-28T00:56:35;100044.22;;;7.88;100.00
46946;BME280;32679;40.810;14.498;2023-02-28T00:59:01;100049.03;;;7.92;100.00
46946;BME280;32679;40.810;14.498;2023-02-28T01:01:27;100040.28;;;7.90;100.00
46946;BME280;32679;40.810;14.498;2023-02-28T01:03:52;100050.56;;;7.89;100.00
46946;BME280;32679;40.810;14.498;2023-02-28T01:06:17;100052.03;;;7.86;100.00
46946;BME280;32679;40.810;14.498;2023-02-28T01:08:43;100048.34;;;7.82;100.00
46946;BME280;32679;40.810;14.498;2023-02-28T01:11:11;100044.69;;;7.78;100.00
46946;BME280;32679;40.810;14.498;2023-02-28T01:13:37;100048.56;;;7.77;100.00
46946;BME280;32679;40.810;14.498;2023-02-28T01:16:03;100039.13;;;7.78;100.00
46946;BME280;32679;40.810;14.498;2023-02-28T01:18:28;100037.06;;;7.75;100.00
46946;BME280;32679;40.810;14.498;2023-02-28T01:20:54;100039.13;;;7.78;100.00
46946;BME280;32679;40.810;14.498;2023-02-28T01:23:21;100035.44;;;7.74;100.00
46946;BME280;32679;40.810;14.498;2023-02-28T01:25:49;100036.59;;;7.73;100.00
46946;BME280;32679;40.810;14.498;2023-02-28T01:28:14;100033.47;;;7.75;100.00
46946;BME280;32679;40.810;14.498;2023-02-28T01:30:39;100028.53;;;7.68;100.00
46946;BME280;32679;40.810;14.498;2023-02-28T01:33:05;100031.53;;;7.63;100.00
46946;BME280;32679;40.810;14.498;2023-02-28T01:35:35;100026.00;;;7.63;100.00
46946;BME280;32679;40.810;14.498;2023-02-28T01:38:01;100027.81;;;7.59;100.00
46946;BME280;32679;40.810;14.498;2023-02-28T01:40:27;100031.97;;;7.53;100.00
46946;BME280;32679;40.810;14.498;2023-02-28T01:42:55;100026.69;;;7.48;100.00
46946;BME280;32679;40.810;14.498;2023-02-28T01:45:29;100023.19;;;7.51;100.00
46946;BME280;32679;40.810;14.498;2023-02-28T01:48:04;100023.19;;;7.51;100.00
46946;BME280;32679;40.810;14.498;2023-02-28T01:50:35;100023.91;;;7.48;100.00
46946;BME280;32679;40.810;14.498;2023-02-28T01:53:07;100023.44;;;7.58;100.00
46946;BME280;32679;40.810;14.498;2023-02-28T01:55:34;100011.31;;;7.50;100.00
46946;BME280;32679;40.810;14.498;2023-02-28T01:58:02;100016.75;;;7.47;100.00
46946;BME280;32679;40.810;14.498;2023-02-28T02:00:30;100012.84;;;7.48;100.00
46946;BME280;32679;40.810;14.498;2023-02-28T02:03:05;100009.34;;;7.51;100.00
46946;BME280;32679;40.810;14.498;2023-02-28T02:05:32;100013.53;;;7.57;100.00
46946;BME280;32679;40.810;14.498;2023-02-28T02:08:04;100020.66;;;7.95;98.67
46946;BME280;32679;40.810;14.498;2023-02-28T02:10:33;100022.84;;;7.89;95.71
46946;BME280;32679;40.810;14.498;2023-02-28T02:13:16;100024.25;;;7.83;96.14
46946;BME280;32679;40.810;14.498;2023-02-28T02:18:54;100021.47;;;7.71;97.50
46946;BME280;32679;40.810;14.498;2023-02-28T02:36:01;100013.06;;;7.55;98.70
46946;BME280;32679;40.810;14.498;2023-02-28T02:38:34;100023.31;;;7.54;99.37
46946;BME280;32679;40.810;14.498;2023-02-28T02:41:10;100010.97;;;7.64;98.45
46946;BME280;32679;40.810;14.498;2023-02-28T02:44:01;100016.66;;;7.68;99.68
46946;BME280;32679;40.810;14.498;2023-02-28T02:46:37;100021.72;;;7.53;98.89
46946;BME280;32679;40.810;14.498;2023-02-28T02:49:06;100025.75;;;7.68;99.51
46946;BME280;32679;40.810;14.498;2023-02-28T02:51:34;100023.56;;;7.49;99.04
46946;BME280;32679;40.810;14.498;2023-02-28T02:54:06;100017.78;;;7.54;99.92
46946;BME280;32679;40.810;14.498;2023-02-28T02:56:34;100020.91;;;7.53;98.67
46946;BME280;32679;40.810;14.498;2023-02-28T02:59:07;100016.41;;;7.48;99.58
46946;BME280;32679;40.810;14.498;2023-02-28T03:01:34;100008.31;;;7.55;100.00
46946;BME280;32679;40.810;14.498;2023-02-28T03:04:10;99997.84;;;7.49;99.23
46946;BME280;32679;40.810;14.498;2023-02-28T03:06:37;100010.88;;;7.48;99.68
46946;BME280;32679;40.810;14.498;2023-02-28T03:09:03;99987.69;;;7.28;99.11
46946;BME280;32679;40.810;14.498;2023-02-28T03:11:30;100005.13;;;7.41;99.02
46946;BME280;32679;40.810;14.498;2023-02-28T03:14:05;100005.22;;;7.32;98.75
46946;BME280;32679;40.810;14.498;2023-02-28T03:19:34;99979.50;;;7.20;99.07
46946;BME280;32679;40.810;14.498;2023-02-28T03:22:18;100003.97;;;7.30;98.49
46946;BME280;32679;40.810;14.498;2023-02-28T03:24:49;100004.06;;;7.33;98.23
46946;BME280;32679;40.810;14.498;2023-02-28T03:27:36;99997.94;;;7.28;98.00
46946;BME280;32679;40.810;14.498;2023-02-28T03:30:38;99998.53;;;7.33;97.83
46946;BME280;32679;40.810;14.498;2023-02-28T03:33:16;99997.38;;;7.34;97.13
46946;BME280;32679;40.810;14.498;2023-02-28T03:35:57;100001.53;;;7.41;96.29
46946;BME280;32679;40.810;14.498;2023-02-28T03:38:49;100005.00;;;7.38;96.18
46946;BME280;32679;40.810;14.498;2023-02-28T03:43:46;100009.16;;;7.31;96.87
46946;BME280;32679;40.810;14.498;2023-02-28T03:46:18;100007.53;;;7.30;97.41
46946;BME280;32679;40.810;14.498;2023-02-28T03:48:53;100010.53;;;7.25;97.40
46946;BME280;32679;40.810;14.498;2023-02-28T03:51:20;100010.63;;;7.29;96.78
46946;BME280;32679;40.810;14.498;2023-02-28T03:53:52;100008.88;;;7.24;97.52
46946;BME280;32679;40.810;14.498;2023-02-28T03:56:31;100003.47;;;7.28;96.88
46946;BME280;32679;40.810;14.498;2023-02-28T03:59:22;100008.66;;;7.17;96.35
46946;BME280;32679;40.810;14.498;2023-02-28T04:01:50;100001.38;;;7.13;96.67
46946;BME280;32679;40.810;14.498;2023-02-28T04:04:17;100010.97;;;7.15;97.28
46946;BME280;32679;40.810;14.498;2023-02-28T04:06:49;100003.69;;;7.11;97.38
46946;BME280;32679;40.810;14.498;2023-02-28T04:09:15;100002.41;;;7.08;98.01
46946;BME280;32679;40.810;14.498;2023-02-28T04:11:49;100008.88;;;7.12;98.13
46946;BME280;32679;40.810;14.498;2023-02-28T04:14:17;100021.47;;;7.09;97.44
46946;BME280;32679;40.810;14.498;2023-02-28T04:16:45;100006.59;;;7.14;98.14
46946;BME280;32679;40.810;14.498;2023-02-28T04:19:12;100009.22;;;7.11;97.99
46946;BME280;32679;40.810;14.498;2023-02-28T04:21:43;100012.13;;;7.14;97.62
46946;BME280;32679;40.810;14.498;2023-02-28T04:24:11;100006.13;;;7.12;97.76
46946;BME280;32679;40.810;14.498;2023-02-28T04:26:41;100001.75;;;7.23;97.37
46946;BME280;32679;40.810;14.498;2023-02-28T04:29:09;100006.03;;;7.21;97.13
46946;BME280;32679;40.810;14.498;2023-02-28T04:31:34;100009.47;;;7.18;97.44
46946;BME280;32679;40.810;14.498;2023-02-28T04:34:00;100015.81;;;7.18;97.76
46946;BME280;32679;40.810;14.498;2023-02-28T04:36:26;100019.06;;;7.20;97.75
46946;BME280;32679;40.810;14.498;2023-02-28T04:38:52;100016.16;;;7.17;98.00
46946;BME280;32679;40.810;14.498;2023-02-28T04:41:19;100010.63;;;7.29;97.17
46946;BME280;32679;40.810;14.498;2023-02-28T04:43:44;100017.19;;;7.12;97.47
46946;BME280;32679;40.810;14.498;2023-02-28T04:46:10;100029.19;;;7.16;97.41
46946;BME280;32679;40.810;14.498;2023-02-28T04:48:38;100023.66;;;7.16;96.91
46946;BME280;32679;40.810;14.498;2023-02-28T04:51:10;100016.75;;;7.22;97.59
46946;BME280;32679;40.810;14.498;2023-02-28T04:53:37;99986.75;;;7.12;96.62
46946;BME280;32679;40.810;14.498;2023-02-28T04:56:03;100015.25;;;7.25;96.48
46946;BME280;32679;40.810;14.498;2023-02-28T04:58:29;100018.34;;;7.23;96.17
46946;BME280;32679;40.810;14.498;2023-02-28T05:01:02;100018.03;;;7.25;95.77
46946;BME280;32679;40.810;14.498;2023-02-28T05:03:28;99984.56;;;7.05;95.46
46946;BME280;32679;40.810;14.498;2023-02-28T05:05:53;100007.72;;;7.13;96.04
46946;BME280;32679;40.810;14.498;2023-02-28T05:08:19;100007.72;;;7.13;95.77
46946;BME280;32679;40.810;14.498;2023-02-28T05:10:44;100001.38;;;7.13;96.06
46946;BME280;32679;40.810;14.498;2023-02-28T05:13:12;100006.13;;;7.12;96.38
46946;BME280;32679;40.810;14.498;2023-02-28T05:15:37;100003.25;;;7.21;95.81
46946;BME280;32679;40.810;14.498;2023-02-28T05:18:03;100007.63;;;7.34;93.90
46946;BME280;32679;40.810;14.498;2023-02-28T05:20:28;99998.53;;;7.58;91.82
46946;BME280;32679;40.810;14.498;2023-02-28T05:22:54;100001.50;;;7.90;88.81
46946;BME280;32679;40.810;14.498;2023-02-28T05:25:21;100004.50;;;7.84;88.43
46946;BME280;32679;40.810;14.498;2023-02-28T05:27:47;99999.19;;;7.79;88.41
46946;BME280;32679;40.810;14.498;2023-02-28T05:30:13;100005.19;;;7.81;88.57
46946;BME280;32679;40.810;14.498;2023-02-28T05:32:39;100003.69;;;7.84;88.79
46946;BME280;32679;40.810;14.498;2023-02-28T05:35:09;100000.22;;;7.87;88.05
46946;BME280;32679;40.810;14.498;2023-02-28T05:37:38;100000.81;;;7.80;88.46
46946;BME280;32679;40.810;14.498;2023-02-28T05:40:05;99996.66;;;7.74;89.48
46946;BME280;32679;40.810;14.498;2023-02-28T05:42:32;99992.72;;;7.75;89.98
46946;BME280;32679;40.810;14.498;2023-02-28T05:45:00;100012.34;;;7.70;90.84
46946;BME280;32679;40.810;14.498;2023-02-28T05:47:26;100015.34;;;7.77;91.97
46946;BME280;32679;40.810;14.498;2023-02-28T05:49:51;100007.75;;;7.74;91.12
46946;BME280;32679;40.810;14.498;2023-02-28T05:52:17;100014.66;;;7.80;91.24
46946;BME280;32679;40.810;14.498;2023-02-28T05:54:45;100012.22;;;7.91;90.58
46946;BME280;32679;40.810;14.498;2023-02-28T05:57:11;100021.16;;;8.37;86.57
46946;BME280;32679;40.810;14.498;2023-02-28T05:59:40;100015.28;;;8.54;86.38
46946;BME280;32679;40.810;14.498;2023-02-28T06:02:16;100021.66;;;8.99;85.74
46946;BME280;32679;40.810;14.498;2023-02-28T06:04:42;100022.75;;;9.41;84.57
46946;BME280;32679;40.810;14.498;2023-02-28T06:07:09;100017.78;;;9.82;81.88
46946;BME280;32679;40.810;14.498;2023-02-28T06:09:35;100027.34;;;10.20;81.02
46946;BME280;32679;40.810;14.498;2023-02-28T06:12:02;100029.88;;;10.64;79.35
46946;BME280;32679;40.810;14.498;2023-02-28T06:14:31;100034.78;;;11.13;77.00
46946;BME280;32679;40.810;14.498;2023-02-28T06:16:57;100038.22;;;11.75;73.16
46946;BME280;32679;40.810;14.498;2023-02-28T06:19:26;100033.56;;;12.36;70.75
46946;BME280;32679;40.810;14.498;2023-02-28T06:21:53;100026.25;;;12.91;67.67
46946;BME280;32679;40.810;14.498;2023-02-28T06:24:23;100027.16;;;13.40;63.67
46946;BME280;32679;40.810;14.498;2023-02-28T06:26:49;100030.34;;;13.86;62.14
46946;BME280;32679;40.810;14.498;2023-02-28T06:29:17;100027.44;;;14.34;58.47
46946;BME280;32679;40.810;14.498;2023-02-28T06:31:47;100036.06;;;14.87;57.01
46946;BME280;32679;40.810;14.498;2023-02-28T06:34:13;100030.53;;;15.23;53.79
46946;BME280;32679;40.810;14.498;2023-02-28T06:36:39;100025.00;;;15.73;53.06
46946;BME280;32679;40.810;14.498;2023-02-28T06:39:07;100022.09;;;16.30;51.66
46946;BME280;32679;40.810;14.498;2023-02-28T06:41:36;100031.66;;;16.47;49.82
46946;BME280;32679;40.810;14.498;2023-02-28T06:44:12;100034.06;;;16.45;48.97
46946;BME280;32679;40.810;14.498;2023-02-28T06:46:41;100036.41;;;16.68;49.33
46946;BME280;32679;40.810;14.498;2023-02-28T06:49:08;100037.69;;;17.29;47.20
46946;BME280;32679;40.810;14.498;2023-02-28T06:51:34;100032.78;;;17.41;45.25
46946;BME280;32679;40.810;14.498;2023-02-28T06:54:00;100039.72;;;17.81;46.18
46946;BME280;32679;40.810;14.498;2023-02-28T06:56:29;100032.59;;;17.62;46.51
46946;BME280;32679;40.810;14.498;2023-02-28T06:58:55;100043.47;;;18.12;44.66
46946;BME280;32679;40.810;14.498;2023-02-28T07:01:21;100044.78;;;18.00;42.90
46946;BME280;32679;40.810;14.498;2023-02-28T07:03:49;100047.88;;;18.47;43.21
46946;BME280;32679;40.810;14.498;2023-02-28T07:06:18;100052.13;;;18.28;43.11
46946;BME280;32679;40.810;14.498;2023-02-28T07:08:44;100043.59;;;18.73;41.86
46946;BME280;32679;40.810;14.498;2023-02-28T07:11:10;100053.09;;;19.44;41.18
46946;BME280;32679;40.810;14.498;2023-02-28T07:13:36;100056.50;;;19.59;38.17
46946;BME280;32679;40.810;14.498;2023-02-28T07:16:04;100049.66;;;19.83;40.08
46946;BME280;32679;40.810;14.498;2023-02-28T07:18:31;100052.69;;;20.16;39.23
46946;BME280;32679;40.810;14.498;2023-02-28T07:20:57;100050.03;;;20.52;38.20
46946;BME280;32679;40.810;14.498;2023-02-28T07:23:22;100052.34;;;20.57;37.89
46946;BME280;32679;40.810;14.498;2023-02-28T07:25:50;100062.53;;;19.61;36.33
46946;BME280;32679;40.810;14.498;2023-02-28T07:28:15;100055.03;;;19.47;37.64
46946;BME280;32679;40.810;14.498;2023-02-28T07:30:41;100053.81;;;19.75;37.31
46946;BME280;32679;40.810;14.498;2023-02-28T07:33:07;100054.19;;;19.23;37.54
46946;BME280;32679;40.810;14.498;2023-02-28T07:35:32;100048.94;;;19.76;37.43
46946;BME280;32679;40.810;14.498;2023-02-28T07:37:58;100050.13;;;18.97;37.69
46946;BME280;32679;40.810;14.498;2023-02-28T07:40:24;100046.78;;;18.00;40.70
46946;BME280;32679;40.810;14.498;2023-02-28T07:42:50;100040.56;;;18.53;39.47
46946;BME280;32679;40.810;14.498;2023-02-28T07:45:19;100036.84;;;19.52;39.58
46946;BME280;32679;40.810;14.498;2023-02-28T07:47:45;100035.75;;;19.69;36.80
46946;BME280;32679;40.810;14.498;2023-02-28T07:50:14;100037.63;;;20.46;36.01
46946;BME280;32679;40.810;14.498;2023-02-28T07:52:40;100025.31;;;20.56;36.30
46946;BME280;32679;40.810;14.498;2023-02-28T07:55:07;100039.34;;;21.00;36.55
46946;BME280;32679;40.810;14.498;2023-02-28T07:57:33;100036.63;;;21.32;34.77
46946;BME280;32679;40.810;14.498;2023-02-28T07:59:59;100043.44;;;21.51;33.96
46946;BME280;32679;40.810;14.498;2023-02-28T08:02:25;100043.25;;;21.42;33.48
46946;BME280;32679;40.810;14.498;2023-02-28T08:04:50;100034.78;;;21.75;35.06
46946;BME280;32679;40.810;14.498;2023-02-28T08:07:17;100045.66;;;20.04;36.07
46946;BME280;32679;40.810;14.498;2023-02-28T08:09:44;100040.16;;;20.80;35.38
46946;BME280;32679;40.810;14.498;2023-02-28T08:12:11;100041.66;;;21.41;34.66
46946;BME280;32679;40.810;14.498;2023-02-28T08:14:37;100044.50;;;21.05;35.35
46946;BME280;32679;40.810;14.498;2023-02-28T08:17:03;100055.66;;;19.58;35.93
46946;BME280;32679;40.810;14.498;2023-02-28T08:19:30;100063.78;;;18.99;37.52
46946;BME280;32679;40.810;14.498;2023-02-28T08:21:56;100049.22;;;16.65;41.01
46946;BME280;32679;40.810;14.498;2023-02-28T08:24:24;100042.94;;;17.20;41.51
46946;BME280;32679;40.810;14.498;2023-02-28T08:26:49;100040.25;;;16.99;41.22
46946;BME280;32679;40.810;14.498;2023-02-28T08:29:15;100038.47;;;17.34;41.57
46946;BME280;32679;40.810;14.498;2023-02-28T08:31:41;100025.25;;;16.46;41.65
46946;BME280;32679;40.810;14.498;2023-02-28T08:34:08;100041.09;;;16.96;41.68
46946;BME280;32679;40.810;14.498;2023-02-28T08:36:35;100042.13;;;17.23;40.65
46946;BME280;32679;40.810;14.498;2023-02-28T08:39:00;100039.81;;;17.11;41.48
46946;BME280;32679;40.810;14.498;2023-02-28T08:41:26;100064.59;;;16.29;42.72
46946;BME280;32679;40.810;14.498;2023-02-28T08:43:52;100051.81;;;16.03;42.91
46946;BME280;32679;40.810;14.498;2023-02-28T08:46:19;100036.44;;;16.50;43.62
46946;BME280;32679;40.810;14.498;2023-02-28T08:48:51;100036.56;;;16.07;44.06
46946;BME280;32679;40.810;14.498;2023-02-28T08:51:17;100036.19;;;15.98;44.43
46946;BME280;32679;40.810;14.498;2023-02-28T08:53:52;100044.94;;;16.29;43.40
46946;BME280;32679;40.810;14.498;2023-02-28T08:56:18;100042.19;;;16.14;43.28
46946;BME280;32679;40.810;14.498;2023-02-28T08:58:45;100038.47;;;16.53;43.60
46946;BME280;32679;40.810;14.498;2023-02-28T09:03:43;100042.03;;;16.61;42.92
46946;BME280;32679;40.810;14.498;2023-02-28T09:06:12;100043.56;;;16.87;42.55
46946;BME280;32679;40.810;14.498;2023-02-28T09:08:38;100028.06;;;16.43;42.79
46946;BME280;32679;40.810;14.498;2023-02-28T09:11:03;100020.09;;;16.23;44.19
46946;BME280;32679;40.810;14.498;2023-02-28T09:13:32;100031.59;;;16.65;43.20
46946;BME280;32679;40.810;14.498;2023-02-28T09:15:59;100036.50;;;16.29;43.76
46946;BME280;32679;40.810;14.498;2023-02-28T09:18:26;100045.81;;;16.04;43.49
46946;BME280;32679;40.810;14.498;2023-02-28T09:20:51;100043.00;;;15.86;44.96
46946;BME280;32679;40.810;14.498;2023-02-28T09:23:17;100053.03;;;15.84;44.65
46946;BME280;32679;40.810;14.498;2023-02-28T09:25:50;100059.81;;;15.40;45.84
46946;BME280;32679;40.810;14.498;2023-02-28T09:28:16;100052.09;;;15.01;47.54
46946;BME280;32679;40.810;14.498;2023-02-28T09:30:44;100051.72;;;14.99;47.25
46946;BME280;32679;40.810;14.498;2023-02-28T09:33:10;100058.09;;;14.96;47.80
46946;BME280;32679;40.810;14.498;2023-02-28T09:35:36;100048.47;;;14.83;47.96
46946;BME280;32679;40.810;14.498;2023-02-28T09:38:03;100044.84;;;14.79;48.83
46946;BME280;32679;40.810;14.498;2023-02-28T09:40:28;100057.28;;;14.81;48.44
46946;BME280;32679;40.810;14.498;2023-02-28T09:42:55;100055.59;;;14.70;49.29
46946;BME280;32679;40.810;14.498;2023-02-28T09:45:40;100041.59;;;14.70;49.61
46946;BME280;32679;40.810;14.498;2023-02-28T09:48:12;100059.44;;;14.40;50.40
46946;BME280;32679;40.810;14.498;2023-02-28T09:50:48;100070.16;;;14.24;50.47
46946;BME280;32679;40.810;14.498;2023-02-28T09:53:35;100065.28;;;14.13;51.16
46946;BME280;32679;40.810;14.498;2023-02-28T09:56:38;100062.38;;;13.99;51.41
46946;BME280;32679;40.810;14.498;2023-02-28T09:59:13;100050.31;;;13.88;52.44
46946;BME280;32679;40.810;14.498;2023-02-28T10:04:42;100056.75;;;13.92;53.47
46946;BME280;32679;40.810;14.498;2023-02-28T10:07:38;100055.06;;;13.84;53.17
46946;BME280;32679;40.810;14.498;2023-02-28T10:10:32;100037.94;;;13.85;53.78
46946;BME280;32679;40.810;14.498;2023-02-28T10:13:00;100044.34;;;13.93;55.47
46946;BME280;32679;40.810;14.498;2023-02-28T10:15:30;100021.50;;;13.84;54.25
46946;BME280;32679;40.810;14.498;2023-02-28T10:18:00;100029.56;;;13.93;54.77
46946;BME280;32679;40.810;14.498;2023-02-28T10:20:28;100015.44;;;14.37;53.35
46946;BME280;32679;40.810;14.498;2023-02-28T10:26:14;100017.34;;;15.13;50.57
46946;BME280;32679;40.810;14.498;2023-02-28T10:28:39;100034.22;;;15.74;48.92
46946;BME280;32679;40.810;14.498;2023-02-28T10:31:15;100046.16;;;15.28;49.28
46946;BME280;32679;40.810;14.498;2023-02-28T10:33:42;100048.56;;;15.18;50.06
46946;BME280;32679;40.810;14.498;2023-02-28T10:36:13;100045.28;;;14.95;50.37
46946;BME280;32679;40.810;14.498;2023-02-28T10:38:42;100035.72;;;15.10;50.39
46946;BME280;32679;40.810;14.498;2023-02-28T10:41:15;100038.03;;;14.80;50.34
46946;BME280;32679;40.810;14.498;2023-02-28T10:43:43;100022.81;;;14.74;50.00
46946;BME280;32679;40.810;14.498;2023-02-28T10:48:43;100015.66;;;14.87;49.91
46946;BME280;32679;40.810;14.498;2023-02-28T10:51:15;100031.69;;;15.01;49.82
46946;BME280;32679;40.810;14.498;2023-02-28T10:53:49;100018.13;;;15.38;49.36
46946;BME280;32679;40.810;14.498;2023-02-28T10:56:19;100012.56;;;15.63;47.86
46946;BME280;32679;40.810;14.498;2023-02-28T11:03:58;99980.50;;;15.89;46.70
46946;BME280;32679;40.810;14.498;2023-02-28T11:06:30;99979.63;;;16.10;46.77
46946;BME280;32679;40.810;14.498;2023-02-28T11:08:59;99963.94;;;16.23;46.05
46946;BME280;32679;40.810;14.498;2023-02-28T11:11:28;99973.44;;;16.51;45.59
46946;BME280;32679;40.810;14.498;2023-02-28T11:14:03;99968.53;;;16.84;43.91
46946;BME280;32679;40.810;14.498;2023-02-28T11:16:37;99958.94;;;17.29;43.26
46946;BME280;32679;40.810;14.498;2023-02-28T11:19:04;99947.47;;;17.58;43.34
46946;BME280;32679;40.810;14.498;2023-02-28T11:21:34;99947.22;;;17.83;41.92
46946;BME280;32679;40.810;14.498;2023-02-28T11:26:49;99930.00;;;17.33;42.21
46946;BME280;32679;40.810;14.498;2023-02-28T11:29:21;99927.22;;;17.29;41.77
46946;BME280;32679;40.810;14.498;2023-02-28T11:32:18;99934.09;;;17.24;40.98
46946;BME280;32679;40.810;14.498;2023-02-28T11:34:46;99926.94;;;17.16;42.15
46946;BME280;32679;40.810;14.498;2023-02-28T11:37:15;99911.16;;;16.70;42.49
46946;BME280;32679;40.810;14.498;2023-02-28T11:39:43;99928.00;;;16.77;43.54
46946;BME280;32679;40.810;14.498;2023-02-28T11:45:17;99935.19;;;15.98;46.00
46946;BME280;32679;40.810;14.498;2023-02-28T11:56:44;99924.44;;;15.36;50.36
46946;BME280;32679;40.810;14.498;2023-02-28T12:02:23;99920.03;;;15.17;51.88
46946;BME280;32679;40.810;14.498;2023-02-28T12:08:11;99932.41;;;14.66;52.41
46946;BME280;32679;40.810;14.498;2023-02-28T12:10:59;99947.88;;;14.42;52.29
46946;BME280;32679;40.810;14.498;2023-02-28T12:28:14;99963.72;;;14.02;58.54
46946;BME280;32679;40.810;14.498;2023-02-28T12:30:58;99968.09;;;14.03;58.40
46946;BME280;32679;40.810;14.498;2023-02-28T12:33:34;99977.66;;;13.99;59.06
46946;BME280;32679;40.810;14.498;2023-02-28T12:36:05;99991.19;;;13.86;59.88
46946;BME280;32679;40.810;14.498;2023-02-28T12:39:01;99989.47;;;13.71;59.69
46946;BME280;32679;40.810;14.498;2023-02-28T12:41:42;99960.56;;;13.52;60.92
46946;BME280;32679;40.810;14.498;2023-02-28T12:44:42;99999.44;;;13.65;60.35
46946;BME280;32679;40.810;14.498;2023-02-28T12:47:14;99997.84;;;13.67;60.11
46946;BME280;32679;40.810;14.498;2023-02-28T12:49:50;99995.75;;;13.53;62.38
46946;BME280;32679;40.810;14.498;2023-02-28T12:52:23;99981.28;;;13.44;62.80
46946;BME280;32679;40.810;14.498;2023-02-28T13:00:16;99974.13;;;13.47;59.26
46946;BME280;32679;40.810;14.498;2023-02-28T13:10:18;99991.31;;;13.52;62.68
46946;BME280;32679;40.810;14.498;2023-02-28T13:12:52;99992.50;;;13.48;63.01
46946;BME280;32679;40.810;14.498;2023-02-28T13:15:24;99985.34;;;13.50;62.53
46946;BME280;32679;40.810;14.498;2023-02-28T13:17:56;99997.63;;;13.42;62.49
46946;BME280;32679;40.810;14.498;2023-02-28T13:20:29;100001.59;;;13.38;61.68
46946;BME280;32679;40.810;14.498;2023-02-28T13:22:56;99998.00;;;13.37;62.82
46946;BME280;32679;40.810;14.498;2023-02-28T13:28:12;100001.97;;;13.36;63.10
46946;BME280;32679;40.810;14.498;2023-02-28T13:35:44;100012.44;;;13.05;66.03
46946;BME280;32679;40.810;14.498;2023-02-28T13:38:22;100020.66;;;12.91;67.48
46946;BME280;32679;40.810;14.498;2023-02-28T13:40:50;100018.97;;;12.79;68.87
46946;BME280;32679;40.810;14.498;2023-02-28T13:43:17;100009.69;;;12.72;68.33
46946;BME280;32679;40.810;14.498;2023-02-28T13:46:08;100014.47;;;12.71;70.27
46946;BME280;32679;40.810;14.498;2023-02-28T13:48:35;100023.38;;;12.50;72.42
46946;BME280;32679;40.810;14.498;2023-02-28T14:02:34;99976.81;;;11.68;88.03
46946;BME280;32679;40.810;14.498;2023-02-28T14:08:26;100010.09;;;11.57;93.19
46946;BME280;32679;40.810;14.498;2023-02-28T14:10:44;100025.53;;;11.51;93.96
46946;BME280;32679;40.810;14.498;2023-02-28T14:13:43;100028.25;;;11.47;95.03
46946;BME280;32679;40.810;14.498;2023-02-28T14:16:23;100035.34;;;11.45;95.01
46946;BME280;32679;40.810;14.498;2023-02-28T14:19:12;100032.25;;;11.50;95.57
46946;BME280;32679;40.810;14.498;2023-02-28T14:21:45;100019.38;;;11.42;96.98
46946;BME280;32679;40.810;14.498;2023-02-28T14:37:51;100043.28;;;11.20;100.00
46946;BME280;32679;40.810;14.498;2023-02-28T14:42:58;100050.47;;;11.21;100.00
46946;BME280;32679;40.810;14.498;2023-02-28T14:45:28;100053.78;;;11.07;100.00
46946;BME280;32679;40.810;14.498;2023-02-28T14:47:56;100050.69;;;11.12;100.00
46946;BME280;32679;40.810;14.498;2023-02-28T14:50:27;100055.53;;;11.15;100.00
46946;BME280;32679;40.810;14.498;2023-02-28T14:52:55;100055.72;;;11.26;100.00
46946;BME280;32679;40.810;14.498;2023-02-28T14:55:36;100051.66;;;11.20;100.00
46946;BME280;32679;40.810;14.498;2023-02-28T14:58:06;100047.56;;;11.14;100.00
46946;BME280;32679;40.810;14.498;2023-02-28T15:00:49;100064.88;;;11.04;100.00
46946;BME280;32679;40.810;14.498;2023-02-28T15:03:24;100056.81;;;10.98;100.00